createdAt,value
2022-12-25T00:01:21.402Z,101604.31
2022-12-25T00:06:27.044Z,101602.75
2022-12-25T00:11:32.323Z,101590.03
2022-12-25T00:16:37.552Z,101594.59
2022-12-25T00:21:42.870Z,101590.47
2022-12-25T00:26:48.239Z,101604.91
2022-12-25T00:31:53.705Z,101592.84
2022-12-25T00:36:59.319Z,101595.81
2022-12-25T00:42:43.795Z,101578.06
2022-12-25T00:47:49.163Z,101580.66
2022-12-25T00:52:54.610Z,101583.97
2022-12-25T00:58:00.067Z,101587.34
2022-12-25T01:03:05.315Z,101586.56
2022-12-25T01:08:11.134Z,101585.13
2022-12-25T01:13:16.478Z,101582.59
2022-12-25T01:18:23.987Z,101584.53
2022-12-25T01:23:29.319Z,101588.09
2022-12-25T01:28:34.817Z,101580.09
2022-12-25T01:33:42.213Z,101578.19
2022-12-25T01:38:48.514Z,101589.66
2022-12-25T01:44:38.806Z,101590.22
2022-12-25T01:49:50.981Z,101583.56
2022-12-25T01:55:06.683Z,101593.09
2022-12-25T02:00:13.388Z,101590.47
2022-12-25T02:05:34.065Z,101588.25
2022-12-25T02:10:43.723Z,101587.44
2022-12-25T02:16:58.016Z,101582.00
2022-12-25T02:22:41.402Z,101593.72
2022-12-25T02:28:18.133Z,101590.28
2022-12-25T02:34:04.507Z,101599.22
2022-12-25T02:39:40.116Z,101603.94
2022-12-25T02:45:23.298Z,101599.34
2022-12-25T02:50:48.856Z,101599.00
2022-12-25T02:56:14.359Z,101595.19
2022-12-25T03:01:45.377Z,101599.94
2022-12-25T03:07:09.864Z,101614.13
2022-12-25T03:13:01.258Z,101599.16
2022-12-25T03:18:11.322Z,101611.81
2022-12-25T03:23:40.772Z,101613.94
2022-12-25T03:28:47.444Z,101619.63
2022-12-25T03:34:40.979Z,101617.25
2022-12-25T03:40:52.517Z,101618.66
2022-12-25T03:46:19.824Z,101625.50
2022-12-25T03:51:51.734Z,101622.38
2022-12-25T03:57:17.962Z,101619.78
2022-12-25T04:02:42.887Z,101620.97
2022-12-25T04:08:08.159Z,101626.34
2022-12-25T04:13:33.083Z,101611.97
2022-12-25T04:18:58.323Z,101632.06
2022-12-25T04:24:23.399Z,101628.50
2022-12-25T04:29:48.458Z,101643.78
2022-12-25T04:35:13.452Z,101639.78
2022-12-25T04:40:18.921Z,101643.16
2022-12-25T04:45:24.245Z,101660.41
2022-12-25T04:50:29.402Z,101664.16
2022-12-25T04:55:34.809Z,101668.03
2022-12-25T05:00:40.269Z,101676.84
2022-12-25T05:05:45.616Z,101665.78
2022-12-25T05:10:51.369Z,101677.66
2022-12-25T05:15:56.799Z,101664.78
2022-12-25T05:21:02.116Z,101679.50
2022-12-25T05:26:08.760Z,101689.13
2022-12-25T05:31:14.243Z,101698.69
2022-12-25T05:36:20.224Z,101696.47
2022-12-25T05:41:30.599Z,101683.72
2022-12-25T05:46:41.755Z,101707.13
2022-12-25T05:51:47.221Z,101695.78
2022-12-25T05:56:52.771Z,101709.25
2022-12-25T06:01:58.444Z,101698.34
2022-12-25T06:07:03.741Z,101699.56
2022-12-25T06:12:09.990Z,101717.47
2022-12-25T06:17:15.256Z,101709.81
2022-12-25T06:22:20.621Z,101712.19
2022-12-25T06:27:26.493Z,101719.63
2022-12-25T06:32:31.791Z,101711.59
2022-12-25T06:37:37.180Z,101720.47
2022-12-25T06:42:42.426Z,101711.88
2022-12-25T06:47:47.962Z,101714.78
2022-12-25T06:52:53.323Z,101723.16
2022-12-25T06:58:00.251Z,101715.56
2022-12-25T07:03:05.856Z,101728.38
2022-12-25T07:08:11.180Z,101723.72
2022-12-25T07:13:16.849Z,101728.16
2022-12-25T07:18:22.133Z,101731.91
2022-12-25T07:23:27.703Z,101719.63
2022-12-25T07:28:33.313Z,101735.47
2022-12-25T07:33:38.677Z,101740.13
2022-12-25T07:38:44.447Z,101741.56
2022-12-25T07:43:54.510Z,101744.56
2022-12-25T07:48:59.857Z,101747.03
2022-12-25T07:54:05.307Z,101735.16
2022-12-25T07:59:10.650Z,101731.25
2022-12-25T08:04:15.999Z,101753.44
2022-12-25T08:09:21.438Z,101750.16
2022-12-25T08:14:27.060Z,101745.47
2022-12-25T08:19:32.352Z,101726.69
2022-12-25T08:24:37.667Z,101746.34
2022-12-25T08:29:45.566Z,101740.13
2022-12-25T08:34:49.919Z,101746.09
2022-12-25T08:39:55.292Z,101739.06
2022-12-25T08:45:00.653Z,101740.88
2022-12-25T08:50:06.918Z,101741.09
2022-12-25T08:55:12.658Z,101735.00
2022-12-25T09:00:18.498Z,101723.44
2022-12-25T09:05:23.928Z,101724.06
2022-12-25T09:10:29.249Z,101723.63
2022-12-25T09:15:34.727Z,101716.72
2022-12-25T09:20:40.264Z,101714.28
2022-12-25T09:25:45.646Z,101707.50
2022-12-25T09:30:54.854Z,101705.94
2022-12-25T09:36:09.611Z,101690.13
2022-12-25T09:41:37.113Z,101706.44
2022-12-25T09:47:14.868Z,101710.56
2022-12-25T09:52:28.521Z,101719.78
2022-12-25T09:57:33.973Z,101729.75
2022-12-25T10:02:49.015Z,101724.03
2022-12-25T10:08:23.338Z,101719.38
2022-12-25T10:14:12.380Z,101721.28
2022-12-25T10:20:02.479Z,101731.31
2022-12-25T10:25:19.295Z,101728.38
2022-12-25T10:30:29.956Z,101731.31
2022-12-25T10:35:35.424Z,101729.09
2022-12-25T10:40:59.285Z,101732.25
2022-12-25T10:46:14.474Z,101735.78
2022-12-25T10:51:30.617Z,101736.38
2022-12-25T10:56:35.871Z,101667.88
2022-12-25T11:01:41.280Z,101740.16
2022-12-25T11:07:07.251Z,101744.66
2022-12-25T11:12:20.803Z,101757.88
2022-12-25T11:17:28.596Z,101755.94
2022-12-25T11:22:48.515Z,101749.47
2022-12-25T11:28:03.383Z,101749.63
2022-12-25T11:33:13.950Z,101749.13
2022-12-25T11:38:19.986Z,101754.84
2022-12-25T11:43:34.907Z,101757.06
2022-12-25T11:48:47.902Z,101761.41
2022-12-25T11:53:56.584Z,101758.38
2022-12-25T11:59:35.691Z,101757.56
2022-12-25T12:04:48.611Z,101758.03
2022-12-25T12:10:20.379Z,101759.72
2022-12-25T12:15:38.775Z,101760.69
2022-12-25T12:20:44.183Z,101763.97
2022-12-25T12:25:50.516Z,101770.97
2022-12-25T12:31:21.081Z,101782.78
2022-12-25T12:36:36.148Z,101789.94
2022-12-25T12:41:52.348Z,101784.06
2022-12-25T12:46:58.364Z,101774.25
2022-12-25T12:52:27.415Z,101785.31
2022-12-25T12:57:41.328Z,101791.28
2022-12-25T13:03:35.825Z,101803.66
2022-12-25T13:09:15.473Z,101801.72
2022-12-25T13:14:23.593Z,101801.84
2022-12-25T13:19:29.758Z,101804.97
2022-12-25T13:24:38.128Z,101820.41
2022-12-25T13:29:43.371Z,101818.81
2022-12-25T13:34:50.493Z,101835.91
2022-12-25T13:40:28.312Z,101815.88
2022-12-25T13:45:35.595Z,101815.69
2022-12-25T13:50:49.035Z,101825.38
2022-12-25T13:55:56.517Z,101820.28
2022-12-25T14:01:03.657Z,101824.41
2022-12-25T14:06:30.998Z,101831.25
2022-12-25T14:11:37.068Z,101848.03
2022-12-25T14:16:44.216Z,101840.72
2022-12-25T14:22:21.436Z,101834.91
2022-12-25T14:27:32.344Z,101843.34
2022-12-25T14:32:45.431Z,101850.69
2022-12-25T14:38:00.610Z,101856.63
2022-12-25T14:43:31.689Z,101853.34
2022-12-25T14:48:37.003Z,101860.91
2022-12-25T14:53:55.594Z,101861.34
2022-12-25T14:59:01.324Z,101863.81
2022-12-25T15:04:08.319Z,101871.09
2022-12-25T15:09:19.614Z,101863.66
2022-12-25T15:14:26.447Z,101879.56
2022-12-25T15:19:39.218Z,101885.97
2022-12-25T15:24:44.561Z,101882.75
2022-12-25T15:35:44.726Z,101879.44
2022-12-25T15:40:50.116Z,101885.97
2022-12-25T15:45:55.449Z,101888.34
2022-12-25T15:51:00.885Z,101881.44
2022-12-25T15:56:06.559Z,101878.41
2022-12-25T16:01:21.076Z,101885.97
2022-12-25T16:06:26.863Z,101884.63
2022-12-25T16:11:32.923Z,101879.41
2022-12-25T16:16:39.649Z,101886.00
2022-12-25T16:21:47.118Z,101891.22
2022-12-25T16:26:53.181Z,101878.59
2022-12-25T16:31:58.727Z,101886.91
2022-12-25T16:37:03.806Z,101896.44
2022-12-25T16:42:09.625Z,101891.63
2022-12-25T16:47:15.017Z,101903.97
2022-12-25T16:52:20.435Z,101906.81
2022-12-25T16:57:26.151Z,101907.06
2022-12-25T17:02:31.985Z,101914.38
2022-12-25T17:07:38.587Z,101913.09
2022-12-25T17:12:46.182Z,101909.47
2022-12-25T17:17:51.632Z,101904.09
2022-12-25T17:22:58.260Z,101913.22
2022-12-25T17:28:03.633Z,101924.94
2022-12-25T17:33:09.078Z,101914.81
2022-12-25T17:38:14.547Z,101910.44
2022-12-25T17:43:21.172Z,101914.06
2022-12-25T17:48:26.652Z,101904.69
2022-12-25T17:53:32.488Z,101909.34
2022-12-25T17:58:38.989Z,101904.69
2022-12-25T18:03:47.878Z,101891.88
2022-12-25T18:08:55.518Z,101907.47
2022-12-25T18:14:03.629Z,101911.28
2022-12-25T18:19:10.077Z,101908.09
2022-12-25T18:24:15.456Z,101909.63
2022-12-25T18:29:20.907Z,101913.69
2022-12-25T18:34:26.302Z,101919.03
2022-12-25T18:39:33.441Z,101918.56
2022-12-25T18:44:38.719Z,101916.03
2022-12-25T18:49:44.262Z,101919.84
2022-12-25T18:54:49.712Z,101918.13
2022-12-25T18:59:55.610Z,101920.88
2022-12-25T19:05:01.155Z,101933.63
2022-12-25T19:10:08.633Z,101926.72
2022-12-25T19:15:14.760Z,101928.56
2022-12-25T19:20:20.078Z,101940.16
2022-12-25T19:25:25.447Z,101934.72
2022-12-25T19:30:30.896Z,101948.94
2022-12-25T19:35:42.018Z,101936.16
2022-12-25T19:41:03.038Z,101929.28
2022-12-25T19:46:11.258Z,101944.75
2022-12-25T19:51:25.628Z,101945.44
2022-12-25T19:56:31.519Z,101951.75
2022-12-25T20:01:37.113Z,101939.81
2022-12-25T20:06:43.218Z,101948.63
2022-12-25T20:11:48.717Z,101948.63
2022-12-25T20:16:54.330Z,101950.13
2022-12-25T20:21:59.565Z,101951.13
2022-12-25T20:27:05.763Z,101939.34
2022-12-25T20:32:13.335Z,101947.34
2022-12-25T20:37:18.725Z,101951.66
2022-12-25T20:42:24.327Z,101949.84
2022-12-25T20:47:29.820Z,101938.78
2022-12-25T20:52:35.636Z,101932.66
2022-12-25T20:57:41.535Z,101950.69
2022-12-25T21:02:47.092Z,101948.78
2022-12-25T21:07:52.122Z,101956.78
2022-12-25T21:12:57.218Z,101941.53
2022-12-25T21:18:04.199Z,101941.72
2022-12-25T21:23:09.668Z,101948.03
2022-12-25T21:28:15.068Z,101958.63
2022-12-25T21:33:39.980Z,101949.63
2022-12-25T21:38:46.608Z,101961.25
2022-12-25T21:43:52.215Z,101954.00
2022-12-25T21:48:57.986Z,101953.06
2022-12-25T21:54:04.657Z,101950.09
2022-12-25T21:59:11.236Z,101943.34
2022-12-25T22:04:18.215Z,101947.69
2022-12-25T22:09:24.369Z,101947.41
2022-12-25T22:14:52.615Z,101938.56
2022-12-25T22:19:59.292Z,101943.28
2022-12-25T22:25:06.849Z,101940.56
2022-12-25T22:30:47.166Z,101941.88
2022-12-25T22:36:04.433Z,101953.09
2022-12-25T22:41:09.771Z,101955.84
2022-12-25T22:46:15.430Z,101949.06
2022-12-25T22:51:20.876Z,101945.00
2022-12-25T22:56:26.128Z,101953.16
2022-12-25T23:01:31.853Z,101951.75
2022-12-25T23:06:37.484Z,101953.06
2022-12-25T23:11:43.206Z,101968.97
2022-12-25T23:16:48.646Z,101951.91
2022-12-25T23:22:31.113Z,101969.94
2022-12-25T23:27:36.622Z,101975.75
2022-12-25T23:32:43.803Z,101982.16
2022-12-25T23:37:54.911Z,101982.63
2022-12-25T23:43:00.460Z,101982.84
2022-12-25T23:48:06.586Z,101980.44
2022-12-25T23:53:11.878Z,101982.19
2022-12-25T23:58:17.377Z,101983.06
